createdAt,value
2023-01-07T00:01:24.870Z,8.10
2023-01-07T00:03:53.348Z,8.00
2023-01-07T00:06:30.274Z,8.10
2023-01-07T00:08:58.084Z,8.00
2023-01-07T00:11:31.140Z,7.90
2023-01-07T00:13:59.223Z,7.90
2023-01-07T00:16:30.243Z,7.90
2023-01-07T00:19:00.258Z,7.90
2023-01-07T00:21:28.804Z,7.80
2023-01-07T00:23:59.637Z,8.00
2023-01-07T00:26:31.469Z,7.90
2023-01-07T00:28:58.516Z,7.90
2023-01-07T00:31:29.728Z,8.00
2023-01-07T00:33:57.040Z,8.00
2023-01-07T00:36:27.406Z,7.90
2023-01-07T00:38:57.891Z,7.90
2023-01-07T00:41:25.091Z,8.00
2023-01-07T00:43:51.943Z,8.00
2023-01-07T00:46:19.407Z,8.10
2023-01-07T00:48:46.438Z,8.10
2023-01-07T00:51:15.637Z,8.10
2023-01-07T00:53:43.161Z,8.10
2023-01-07T00:56:12.010Z,8.10
2023-01-07T00:58:38.847Z,8.10
2023-01-07T01:01:05.896Z,8.20
2023-01-07T01:03:33.811Z,8.20
2023-01-07T01:06:07.283Z,8.20
2023-01-07T01:08:34.257Z,8.20
2023-01-07T01:11:09.270Z,8.30
2023-01-07T01:13:38.481Z,8.30
2023-01-07T01:16:17.819Z,8.30
2023-01-07T01:18:46.908Z,8.20
2023-01-07T01:23:47.519Z,8.20
2023-01-07T01:26:16.981Z,8.20
2023-01-07T01:28:44.673Z,8.30
2023-01-07T01:31:12.752Z,8.30
2023-01-07T01:33:39.899Z,8.20
2023-01-07T01:36:10.298Z,8.30
2023-01-07T01:38:37.669Z,8.20
2023-01-07T01:41:05.876Z,8.20
2023-01-07T01:43:39.644Z,8.20
2023-01-07T01:46:24.960Z,8.00
2023-01-07T01:48:58.572Z,7.90
2023-01-07T01:51:29.435Z,8.00
2023-01-07T01:53:56.584Z,8.00
2023-01-07T01:56:30.705Z,8.00
2023-01-07T01:59:04.817Z,8.00
2023-01-07T02:01:34.146Z,8.00
2023-01-07T02:04:01.589Z,7.90
2023-01-07T02:06:33.587Z,8.00
2023-01-07T02:09:00.571Z,8.00
2023-01-07T02:11:52.270Z,8.10
2023-01-07T02:14:55.312Z,8.10
2023-01-07T02:17:52.531Z,8.10
2023-01-07T02:21:06.087Z,8.00
2023-01-07T02:23:51.715Z,8.00
2023-01-07T02:26:59.736Z,8.00
2023-01-07T02:29:54.479Z,8.10
2023-01-07T02:33:06.667Z,8.10
2023-01-07T02:35:33.404Z,8.10
2023-01-07T02:38:19.695Z,8.10
2023-01-07T02:41:01.519Z,8.10
2023-01-07T02:44:19.194Z,8.10
2023-01-07T02:46:51.741Z,8.10
2023-01-07T02:49:19.105Z,8.10
2023-01-07T02:51:46.873Z,8.10
2023-01-07T02:54:24.991Z,8.00
2023-01-07T02:57:43.014Z,8.00
2023-01-07T03:00:52.350Z,7.70
2023-01-07T03:03:56.791Z,7.60
2023-01-07T03:07:11.753Z,7.40
2023-01-07T03:10:06.095Z,7.50
2023-01-07T03:12:53.191Z,7.50
2023-01-07T03:15:36.155Z,7.60
2023-01-07T03:18:21.564Z,7.60
2023-01-07T03:20:54.469Z,7.60
2023-01-07T03:23:25.794Z,7.50
2023-01-07T03:25:55.084Z,7.50
2023-01-07T03:28:29.900Z,7.60
2023-01-07T03:30:58.820Z,7.60
2023-01-07T03:33:43.407Z,7.70
2023-01-07T03:36:12.480Z,7.70
2023-01-07T03:38:43.066Z,7.80
2023-01-07T03:41:10.049Z,7.80
2023-01-07T03:43:36.922Z,7.70
2023-01-07T03:46:04.003Z,7.70
2023-01-07T03:48:30.824Z,7.60
2023-01-07T03:50:57.636Z,7.60
2023-01-07T03:53:24.422Z,7.60
2023-01-07T03:55:51.233Z,7.70
2023-01-07T03:58:18.036Z,7.70
2023-01-07T04:00:44.844Z,7.70
2023-01-07T04:03:11.911Z,7.60
2023-01-07T04:05:38.721Z,7.60
2023-01-07T04:08:05.751Z,7.60
2023-01-07T04:10:32.544Z,7.70
2023-01-07T04:12:59.349Z,7.70
2023-01-07T04:15:26.154Z,7.80
2023-01-07T04:17:53.012Z,7.70
2023-01-07T04:20:19.824Z,7.70
2023-01-07T04:22:46.642Z,7.70
2023-01-07T04:25:13.630Z,7.70
2023-01-07T04:27:40.464Z,7.70
2023-01-07T04:30:07.929Z,7.60
2023-01-07T04:32:34.948Z,7.70
2023-01-07T04:35:01.756Z,7.70
2023-01-07T04:37:28.612Z,7.70
2023-01-07T04:39:55.433Z,7.70
2023-01-07T04:42:22.254Z,7.70
2023-01-07T04:44:49.125Z,7.60
2023-01-07T04:47:16.096Z,7.60
2023-01-07T04:49:43.004Z,7.60
2023-01-07T04:52:09.956Z,7.60
2023-01-07T04:54:36.776Z,7.60
2023-01-07T04:57:03.788Z,7.60
2023-01-07T04:59:30.645Z,7.60
2023-01-07T05:01:57.675Z,7.60
2023-01-07T05:04:24.597Z,7.60
2023-01-07T05:06:51.654Z,7.70
2023-01-07T05:09:18.507Z,7.60
2023-01-07T05:11:45.307Z,7.60
2023-01-07T05:14:12.508Z,7.60
2023-01-07T05:16:39.449Z,7.50
2023-01-07T05:19:06.259Z,7.50
2023-01-07T05:21:33.106Z,7.60
2023-01-07T05:23:59.893Z,7.50
2023-01-07T05:26:26.707Z,7.50
2023-01-07T05:28:53.539Z,7.50
2023-01-07T05:31:20.678Z,7.30
2023-01-07T05:33:47.648Z,7.30
2023-01-07T05:36:15.630Z,7.40
2023-01-07T05:38:42.541Z,7.40
2023-01-07T05:41:09.427Z,7.40
2023-01-07T05:43:36.297Z,7.40
2023-01-07T05:46:03.299Z,7.50
2023-01-07T05:48:30.262Z,7.60
2023-01-07T05:50:57.130Z,7.60
2023-01-07T05:53:24.101Z,7.60
2023-01-07T05:56:00.226Z,7.60
2023-01-07T05:58:28.200Z,7.60
2023-01-07T06:00:56.347Z,7.60
2023-01-07T06:03:23.654Z,7.60
2023-01-07T06:05:51.162Z,7.60
2023-01-07T06:08:18.094Z,7.60
2023-01-07T06:10:45.151Z,7.50
2023-01-07T06:13:11.977Z,7.50
2023-01-07T06:15:38.850Z,7.50
2023-01-07T06:18:05.750Z,7.50
2023-01-07T06:20:35.273Z,7.50
2023-01-07T06:23:05.494Z,7.50
2023-01-07T06:25:32.349Z,7.50
2023-01-07T06:27:59.559Z,7.50
2023-01-07T06:30:26.673Z,7.50
2023-01-07T06:32:54.413Z,7.50
2023-01-07T06:35:21.482Z,7.50
2023-01-07T06:37:48.498Z,7.50
2023-01-07T06:40:15.749Z,7.50
2023-01-07T06:42:42.631Z,7.40
2023-01-07T06:45:10.691Z,7.40
2023-01-07T06:47:37.627Z,7.40
2023-01-07T06:50:04.783Z,7.40
2023-01-07T06:52:31.652Z,7.40
2023-01-07T06:54:58.577Z,7.40
2023-01-07T06:57:26.265Z,7.40
2023-01-07T06:59:53.078Z,7.30
2023-01-07T07:02:23.542Z,7.30
2023-01-07T07:04:50.709Z,7.20
2023-01-07T07:07:18.358Z,7.20
2023-01-07T07:09:45.998Z,7.20
2023-01-07T07:12:13.176Z,7.10
2023-01-07T07:14:40.382Z,7.10
2023-01-07T07:17:07.208Z,7.10
2023-01-07T07:19:34.082Z,7.10
2023-01-07T07:22:04.765Z,7.10
2023-01-07T07:24:32.149Z,7.10
2023-01-07T07:27:00.170Z,7.10
2023-01-07T07:29:27.538Z,7.00
2023-01-07T07:31:54.396Z,7.00
2023-01-07T07:34:21.290Z,7.00
2023-01-07T07:36:48.398Z,7.00
2023-01-07T07:39:15.471Z,7.00
2023-01-07T07:41:42.691Z,7.00
2023-01-07T07:44:09.487Z,7.00
2023-01-07T07:46:36.807Z,7.00
2023-01-07T07:49:04.044Z,7.00
2023-01-07T07:51:31.221Z,7.00
2023-01-07T07:53:58.321Z,7.10
2023-01-07T07:56:25.276Z,7.10
2023-01-07T07:58:52.289Z,7.10
2023-01-07T08:01:19.227Z,7.10
2023-01-07T08:03:46.166Z,7.20
2023-01-07T08:06:13.839Z,7.10
2023-01-07T08:08:41.757Z,7.20
2023-01-07T08:11:09.402Z,7.30
2023-01-07T08:13:36.225Z,7.40
2023-01-07T08:16:03.206Z,7.60
2023-01-07T08:18:30.108Z,7.80
2023-01-07T08:20:57.019Z,7.80
2023-01-07T08:23:24.097Z,8.00
2023-01-07T08:25:51.000Z,8.10
2023-01-07T08:28:17.772Z,8.20
2023-01-07T08:30:45.402Z,8.20
2023-01-07T08:33:12.259Z,8.30
2023-01-07T08:35:39.151Z,8.20
2023-01-07T08:38:09.090Z,8.30
2023-01-07T08:40:38.053Z,8.40
2023-01-07T08:43:07.948Z,8.50
2023-01-07T08:45:34.977Z,8.50
2023-01-07T08:48:02.325Z,8.60
2023-01-07T08:50:33.377Z,8.50
2023-01-07T08:53:00.286Z,8.50
2023-01-07T08:55:29.951Z,8.60
2023-01-07T08:57:57.083Z,8.60
2023-01-07T09:00:24.397Z,8.70
2023-01-07T09:02:52.396Z,8.70
2023-01-07T09:05:19.800Z,8.70
2023-01-07T09:07:46.609Z,8.80
2023-01-07T09:10:13.445Z,8.80
2023-01-07T09:12:40.836Z,8.80
2023-01-07T09:15:09.235Z,8.90
2023-01-07T09:17:36.843Z,9.00
2023-01-07T09:20:05.764Z,9.10
2023-01-07T09:22:34.435Z,9.20
2023-01-07T09:25:01.258Z,9.40
2023-01-07T09:27:28.308Z,9.50
2023-01-07T09:29:58.407Z,9.60
2023-01-07T09:32:26.322Z,9.60
2023-01-07T09:37:34.083Z,9.70
2023-01-07T09:40:01.692Z,9.80
2023-01-07T09:42:53.910Z,10.00
2023-01-07T09:45:30.893Z,10.20
2023-01-07T09:48:01.350Z,10.30
2023-01-07T09:50:56.674Z,10.50
2023-01-07T09:53:31.319Z,10.60
2023-01-07T09:56:11.052Z,10.70
2023-01-07T09:58:42.531Z,10.90
2023-01-07T10:01:15.330Z,10.90
2023-01-07T10:04:49.913Z,10.90
2023-01-07T10:07:24.727Z,10.80
2023-01-07T10:10:17.801Z,10.70
2023-01-07T10:12:58.690Z,10.80
2023-01-07T10:15:38.052Z,10.80
2023-01-07T10:18:13.577Z,10.90
2023-01-07T10:20:54.566Z,11.00
2023-01-07T10:23:26.155Z,11.10
2023-01-07T10:25:58.666Z,11.00
2023-01-07T10:28:38.943Z,11.00
2023-01-07T10:31:12.969Z,11.00
2023-01-07T10:33:41.404Z,11.00
2023-01-07T10:36:26.602Z,11.00
2023-01-07T10:39:27.205Z,11.10
2023-01-07T10:42:06.694Z,11.30
2023-01-07T10:45:02.933Z,11.40
2023-01-07T10:47:32.831Z,11.30
2023-01-07T10:50:30.611Z,11.30
2023-01-07T10:53:27.675Z,11.50
2023-01-07T10:56:20.603Z,11.30
2023-01-07T10:58:50.571Z,11.40
2023-01-07T11:01:30.567Z,11.50
2023-01-07T11:03:59.925Z,11.60
2023-01-07T11:06:59.303Z,11.60
2023-01-07T11:09:33.793Z,11.60
2023-01-07T11:12:26.155Z,11.70
2023-01-07T11:14:56.903Z,11.90
2023-01-07T11:17:38.900Z,11.90
2023-01-07T11:20:08.864Z,12.00
2023-01-07T11:22:38.684Z,12.10
2023-01-07T11:25:25.315Z,12.00
2023-01-07T11:27:52.552Z,12.00
2023-01-07T11:30:27.493Z,12.00
2023-01-07T11:33:06.515Z,11.90
2023-01-07T11:35:34.393Z,11.70
2023-01-07T11:38:02.091Z,11.70
2023-01-07T11:40:32.894Z,11.60
2023-01-07T11:43:26.186Z,11.50
2023-01-07T11:46:20.821Z,11.40
2023-01-07T11:48:50.651Z,11.30
2023-01-07T11:51:17.875Z,11.40
2023-01-07T11:53:50.827Z,11.40
2023-01-07T11:56:21.043Z,11.40
2023-01-07T11:59:14.485Z,11.50
2023-01-07T12:01:52.380Z,11.50
2023-01-07T12:04:38.295Z,11.50
2023-01-07T12:07:16.547Z,11.50
2023-01-07T12:09:46.215Z,11.50
2023-01-07T12:12:39.216Z,11.50
2023-01-07T12:15:19.051Z,11.50
2023-01-07T12:17:50.852Z,11.50
2023-01-07T12:20:38.958Z,11.40
2023-01-07T12:23:24.166Z,11.50
2023-01-07T12:26:16.892Z,11.50
2023-01-07T12:29:07.201Z,11.50
2023-01-07T12:31:58.095Z,11.50
2023-01-07T12:34:52.402Z,11.50
2023-01-07T12:37:27.107Z,11.50
2023-01-07T12:40:29.313Z,11.60
2023-01-07T12:43:05.090Z,11.40
2023-01-07T12:46:02.187Z,11.40
2023-01-07T12:48:41.466Z,11.50
2023-01-07T12:51:21.005Z,11.70
2023-01-07T12:54:11.573Z,11.70
2023-01-07T12:56:53.781Z,11.50
2023-01-07T12:59:48.065Z,11.60
2023-01-07T13:02:54.963Z,11.60
2023-01-07T13:05:28.497Z,11.60
2023-01-07T13:08:25.776Z,11.70
2023-01-07T13:11:44.187Z,11.70
2023-01-07T13:14:31.426Z,11.90
2023-01-07T13:17:30.131Z,12.00
2023-01-07T13:19:59.052Z,12.00
2023-01-07T13:22:38.909Z,12.00
2023-01-07T13:25:42.951Z,12.10
2023-01-07T13:28:21.831Z,12.20
2023-01-07T13:31:10.286Z,12.30
2023-01-07T13:33:55.150Z,12.20
2023-01-07T13:36:30.989Z,12.20
2023-01-07T13:39:38.573Z,12.10
2023-01-07T13:42:27.260Z,11.70
2023-01-07T13:45:15.591Z,11.70
2023-01-07T13:47:49.252Z,11.40
2023-01-07T13:51:01.121Z,11.20
2023-01-07T13:53:37.998Z,10.70
2023-01-07T13:56:17.108Z,10.70
2023-01-07T13:58:45.435Z,10.70
2023-01-07T14:01:24.458Z,10.70
2023-01-07T14:04:03.673Z,10.40
2023-01-07T14:06:36.436Z,10.50
2023-01-07T14:09:13.437Z,10.20
2023-01-07T14:11:58.242Z,10.00
2023-01-07T14:14:43.089Z,10.10
2023-01-07T14:17:38.664Z,10.20
2023-01-07T14:20:50.420Z,10.00
2023-01-07T14:23:32.570Z,10.00
2023-01-07T14:26:08.142Z,10.10
2023-01-07T14:28:46.766Z,10.00
2023-01-07T14:31:23.822Z,9.90
2023-01-07T14:33:58.291Z,9.90
2023-01-07T14:37:08.867Z,9.90
2023-01-07T14:39:44.703Z,9.90
2023-01-07T14:42:20.474Z,9.70
2023-01-07T14:44:49.479Z,9.70
2023-01-07T14:47:41.081Z,9.60
2023-01-07T14:50:30.106Z,9.60
2023-01-07T14:53:32.452Z,9.60
2023-01-07T14:56:38.780Z,9.50
2023-01-07T14:59:46.501Z,9.40
2023-01-07T15:03:03.690Z,9.40
2023-01-07T15:06:03.250Z,9.30
2023-01-07T15:09:08.401Z,9.20
2023-01-07T15:11:56.292Z,9.10
2023-01-07T15:14:50.283Z,9.00
2023-01-07T15:17:17.374Z,9.00
2023-01-07T15:19:45.183Z,8.90
2023-01-07T15:22:38.055Z,8.80
2023-01-07T15:25:13.147Z,8.80
2023-01-07T15:27:56.878Z,8.60
2023-01-07T15:30:47.856Z,8.50
2023-01-07T15:33:36.746Z,8.30
2023-01-07T15:36:06.349Z,8.20
2023-01-07T15:38:50.757Z,8.00
2023-01-07T15:41:34.515Z,7.90
2023-01-07T15:44:05.601Z,7.80
2023-01-07T15:46:33.961Z,7.60
2023-01-07T15:49:09.833Z,7.50
2023-01-07T15:51:40.219Z,7.40
2023-01-07T15:54:25.876Z,7.30
2023-01-07T15:56:57.554Z,7.20
2023-01-07T15:59:31.845Z,7.20
2023-01-07T16:02:25.361Z,7.20
2023-01-07T16:04:54.674Z,7.00
2023-01-07T16:07:49.355Z,6.90
2023-01-07T16:10:35.044Z,6.80
2023-01-07T16:13:05.620Z,6.70
2023-01-07T16:15:34.918Z,6.60
2023-01-07T16:18:15.202Z,6.50
2023-01-07T16:20:56.558Z,6.40
2023-01-07T16:23:33.010Z,6.30
2023-01-07T16:26:16.763Z,6.30
2023-01-07T16:28:54.687Z,6.20
2023-01-07T16:31:31.895Z,6.10
2023-01-07T16:34:00.134Z,6.20
2023-01-07T16:36:41.769Z,6.00
2023-01-07T16:39:29.499Z,5.70
2023-01-07T16:42:15.744Z,5.60
2023-01-07T16:44:44.138Z,5.50
2023-01-07T16:47:18.913Z,5.50
2023-01-07T16:49:46.116Z,5.50
2023-01-07T16:52:21.946Z,5.50
2023-01-07T16:54:50.230Z,5.50
2023-01-07T16:57:41.551Z,5.50
2023-01-07T17:00:20.195Z,5.50
2023-01-07T17:02:58.578Z,5.50
2023-01-07T17:05:29.143Z,5.50
2023-01-07T17:08:14.972Z,5.40
2023-01-07T17:10:47.463Z,5.40
2023-01-07T17:13:14.244Z,5.20
2023-01-07T17:15:43.008Z,5.20
2023-01-07T17:18:15.575Z,5.30
2023-01-07T17:20:50.649Z,5.20
2023-01-07T17:23:26.514Z,5.30
2023-01-07T17:26:03.363Z,5.20
2023-01-07T17:28:46.203Z,5.20
2023-01-07T17:31:13.159Z,5.00
2023-01-07T17:33:40.220Z,5.00
2023-01-07T17:36:14.376Z,4.90
2023-01-07T17:38:41.255Z,4.90
2023-01-07T17:41:37.242Z,4.80
2023-01-07T17:44:07.068Z,4.90
2023-01-07T17:46:33.879Z,4.80
2023-01-07T17:49:01.081Z,4.80
2023-01-07T17:51:28.526Z,4.80
2023-01-07T17:53:59.067Z,4.70
2023-01-07T17:56:26.052Z,4.70
2023-01-07T17:58:55.849Z,4.70
2023-01-07T18:01:23.913Z,4.60
2023-01-07T18:03:51.564Z,4.50
2023-01-07T18:06:24.612Z,4.40
2023-01-07T18:08:52.762Z,4.40
2023-01-07T18:11:46.692Z,4.40
2023-01-07T18:14:14.688Z,4.40
2023-01-07T18:16:42.069Z,4.40
2023-01-07T18:19:13.495Z,4.40
2023-01-07T18:21:41.006Z,4.30
2023-01-07T18:24:09.525Z,4.30
2023-01-07T18:26:36.337Z,4.20
2023-01-07T18:29:03.112Z,4.20
2023-01-07T18:31:30.143Z,4.10
2023-01-07T18:33:56.914Z,4.00
2023-01-07T18:36:23.730Z,3.90
2023-01-07T18:38:50.532Z,3.90
2023-01-07T18:41:17.382Z,3.80
2023-01-07T18:43:44.177Z,3.80
2023-01-07T18:46:11.050Z,3.90
2023-01-07T18:48:37.969Z,3.90
2023-01-07T18:51:11.000Z,3.90
2023-01-07T18:53:38.989Z,3.90
2023-01-07T18:56:11.373Z,3.80
2023-01-07T18:58:39.686Z,3.80
2023-01-07T19:01:08.622Z,3.90
2023-01-07T19:03:36.553Z,3.80
2023-01-07T19:06:11.081Z,3.80
2023-01-07T19:08:39.167Z,3.80
2023-01-07T19:11:12.595Z,3.80
2023-01-07T19:13:39.780Z,3.70
2023-01-07T19:16:10.186Z,3.70
2023-01-07T19:18:37.486Z,3.60
2023-01-07T19:21:06.675Z,3.60
2023-01-07T19:23:33.925Z,3.60
2023-01-07T19:26:08.258Z,3.60
2023-01-07T19:28:35.417Z,3.70
2023-01-07T19:31:06.773Z,3.70
2023-01-07T19:33:34.416Z,3.60
2023-01-07T19:36:03.688Z,3.50
2023-01-07T19:38:30.941Z,3.50
2023-01-07T19:40:57.780Z,3.30
2023-01-07T19:43:24.698Z,3.20
2023-01-07T19:45:56.740Z,3.10
2023-01-07T19:48:24.397Z,3.10
2023-01-07T19:51:00.708Z,3.00
2023-01-07T19:53:29.760Z,2.80
2023-01-07T19:56:02.328Z,2.80
2023-01-07T19:58:29.674Z,2.80
2023-01-07T20:01:06.477Z,2.70
2023-01-07T20:03:35.628Z,2.70
2023-01-07T20:06:18.262Z,2.80
2023-01-07T20:08:45.976Z,2.80
2023-01-07T20:11:13.800Z,2.80
2023-01-07T20:13:41.001Z,2.90
2023-01-07T20:16:29.107Z,2.90
2023-01-07T20:18:56.087Z,2.80
2023-01-07T20:21:25.749Z,2.90
2023-01-07T20:23:53.319Z,3.00
2023-01-07T20:26:24.767Z,3.00
2023-01-07T20:28:52.149Z,3.10
2023-01-07T20:31:21.692Z,3.20
2023-01-07T20:33:50.431Z,3.20
2023-01-07T20:36:23.853Z,3.30
2023-01-07T20:38:51.563Z,3.40
2023-01-07T20:41:27.972Z,3.50
2023-01-07T20:43:58.355Z,3.60
2023-01-07T20:46:27.612Z,3.60
2023-01-07T20:48:56.002Z,3.70
2023-01-07T20:51:22.984Z,3.80
2023-01-07T20:53:49.900Z,3.80
2023-01-07T20:56:19.431Z,3.90
2023-01-07T20:58:47.378Z,3.80
2023-01-07T21:01:18.339Z,3.90
2023-01-07T21:03:45.903Z,3.80
2023-01-07T21:06:14.808Z,3.90
2023-01-07T21:08:41.752Z,3.90
2023-01-07T21:11:18.962Z,3.80
2023-01-07T21:13:46.621Z,3.80
2023-01-07T21:16:14.067Z,3.90
2023-01-07T21:18:41.444Z,3.90
2023-01-07T21:21:19.026Z,3.90
2023-01-07T21:23:47.035Z,3.90
2023-01-07T21:26:14.907Z,3.90
2023-01-07T21:28:44.379Z,3.90
2023-01-07T21:31:14.046Z,3.80
2023-01-07T21:33:41.799Z,3.70
2023-01-07T21:36:18.993Z,3.70
2023-01-07T21:38:47.305Z,3.60
2023-01-07T21:41:16.450Z,3.60
2023-01-07T21:43:44.013Z,3.30
2023-01-07T21:46:11.914Z,3.20
2023-01-07T21:48:41.619Z,3.30
2023-01-07T21:51:15.903Z,3.20
2023-01-07T21:53:42.965Z,3.30
2023-01-07T21:56:16.345Z,3.30
2023-01-07T21:58:44.830Z,3.30
2023-01-07T22:01:13.196Z,3.30
2023-01-07T22:03:44.092Z,3.40
2023-01-07T22:06:24.336Z,3.40
2023-01-07T22:08:56.999Z,3.50
2023-01-07T22:11:24.241Z,3.30
2023-01-07T22:13:53.049Z,3.20
2023-01-07T22:16:22.314Z,3.10
2023-01-07T22:18:49.601Z,3.10
2023-01-07T22:21:17.631Z,3.20
2023-01-07T22:23:46.135Z,3.20
2023-01-07T22:26:15.113Z,3.20
2023-01-07T22:28:43.048Z,3.20
2023-01-07T22:31:20.035Z,3.30
2023-01-07T22:33:46.971Z,3.30
2023-01-07T22:36:49.276Z,3.30
2023-01-07T22:39:18.262Z,3.20
2023-01-07T22:41:46.358Z,3.30
2023-01-07T22:44:21.249Z,3.20
2023-01-07T22:46:50.598Z,3.30
2023-01-07T22:49:18.618Z,3.30
2023-01-07T22:51:48.310Z,3.30
2023-01-07T22:54:16.620Z,3.30
2023-01-07T22:56:44.613Z,3.40
2023-01-07T22:59:12.031Z,3.40
2023-01-07T23:01:39.799Z,3.30
2023-01-07T23:04:06.795Z,3.40
2023-01-07T23:06:33.816Z,3.40
2023-01-07T23:09:00.698Z,3.40
2023-01-07T23:11:45.874Z,3.30
2023-01-07T23:14:12.808Z,3.30
2023-01-07T23:16:40.053Z,3.40
2023-01-07T23:19:07.498Z,3.40
2023-01-07T23:21:34.424Z,3.30
2023-01-07T23:24:01.368Z,3.40
2023-01-07T23:26:28.377Z,3.40
2023-01-07T23:28:55.178Z,3.40
2023-01-07T23:31:22.009Z,3.40
2023-01-07T23:33:48.827Z,3.40
2023-01-07T23:36:20.213Z,3.50
2023-01-07T23:38:48.112Z,3.50
2023-01-07T23:41:15.051Z,3.60
2023-01-07T23:43:42.823Z,3.60
2023-01-07T23:46:10.212Z,3.50
2023-01-07T23:48:39.788Z,3.50
2023-01-07T23:51:10.618Z,3.60
2023-01-07T23:53:37.603Z,3.60
2023-01-07T23:56:07.557Z,3.60
2023-01-07T23:58:37.483Z,3.50
